sensor_id;sensor_type;location;lat;lon;timestamp;temperature;humidity
34135;DHT22;20410;55.578;12.968;2022-12-11T00:01:55;2.30;1.00
34135;DHT22;20410;55.578;12.968;2022-12-11T00:04:21;2.20;1.00
34135;DHT22;20410;55.578;12.968;2022-12-11T00:06:46;2.10;1.00
34135;DHT22;20410;55.578;12.968;2022-12-11T00:09:15;2.10;1.00
34135;DHT22;20410;55.578;12.968;2022-12-11T00:11:41;2.00;1.00
34135;DHT22;20410;55.578;12.968;2022-12-11T00:14:07;2.00;1.00
34135;DHT22;20410;55.578;12.968;2022-12-11T00:16:32;1.90;1.00
34135;DHT22;20410;55.578;12.968;2022-12-11T00:18:58;2.00;1.00
34135;DHT22;20410;55.578;12.968;2022-12-11T00:21:24;1.80;1.00
34135;DHT22;20410;55.578;12.968;2022-12-11T00:23:49;1.70;1.00
34135;DHT22;20410;55.578;12.968;2022-12-11T00:26:15;1.60;1.00
34135;DHT22;20410;55.578;12.968;2022-12-11T00:28:42;1.60;7.60
34135;DHT22;20410;55.578;12.968;2022-12-11T00:31:12;1.60;9.00
34135;DHT22;20410;55.578;12.968;2022-12-11T00:33:38;1.50;4.00
34135;DHT22;20410;55.578;12.968;2022-12-11T00:36:10;1.40;5.60
34135;DHT22;20410;55.578;12.968;2022-12-11T00:38:36;1.50;10.90
34135;DHT22;20410;55.578;12.968;2022-12-11T00:41:01;1.50;12.20
34135;DHT22;20410;55.578;12.968;2022-12-11T00:43:27;1.40;6.90
34135;DHT22;20410;55.578;12.968;2022-12-11T00:45:53;1.40;14.20
34135;DHT22;20410;55.578;12.968;2022-12-11T00:48:18;1.40;16.30
34135;DHT22;20410;55.578;12.968;2022-12-11T00:50:44;1.50;13.50
34135;DHT22;20410;55.578;12.968;2022-12-11T00:53:10;1.40;7.30
34135;DHT22;20410;55.578;12.968;2022-12-11T00:55:37;1.40;7.00
34135;DHT22;20410;55.578;12.968;2022-12-11T00:58:03;1.30;13.00
34135;DHT22;20410;55.578;12.968;2022-12-11T01:00:29;1.30;17.90
34135;DHT22;20410;55.578;12.968;2022-12-11T01:02:55;1.20;18.70
34135;DHT22;20410;55.578;12.968;2022-12-11T01:05:20;1.30;20.60
34135;DHT22;20410;55.578;12.968;2022-12-11T01:07:46;1.30;23.30
34135;DHT22;20410;55.578;12.968;2022-12-11T01:10:12;1.30;22.20
34135;DHT22;20410;55.578;12.968;2022-12-11T01:15:16;1.30;12.00
34135;DHT22;20410;55.578;12.968;2022-12-11T01:17:41;1.20;11.60
34135;DHT22;20410;55.578;12.968;2022-12-11T01:20:07;1.20;13.50
34135;DHT22;20410;55.578;12.968;2022-12-11T01:22:33;1.20;9.90
34135;DHT22;20410;55.578;12.968;2022-12-11T01:24:58;1.20;9.20
34135;DHT22;20410;55.578;12.968;2022-12-11T01:27:24;1.20;12.60
34135;DHT22;20410;55.578;12.968;2022-12-11T01:29:50;1.30;4.20
34135;DHT22;20410;55.578;12.968;2022-12-11T01:32:15;1.30;1.00
34135;DHT22;20410;55.578;12.968;2022-12-11T01:34:41;1.30;1.00
34135;DHT22;20410;55.578;12.968;2022-12-11T01:37:07;1.20;1.00
34135;DHT22;20410;55.578;12.968;2022-12-11T01:39:32;1.20;1.00
34135;DHT22;20410;55.578;12.968;2022-12-11T01:41:59;1.30;1.00
34135;DHT22;20410;55.578;12.968;2022-12-11T01:46:51;1.20;1.00
34135;DHT22;20410;55.578;12.968;2022-12-11T01:49:20;1.20;1.00
34135;DHT22;20410;55.578;12.968;2022-12-11T01:51:48;1.10;1.00
34135;DHT22;20410;55.578;12.968;2022-12-11T01:54:17;1.10;1.00
34135;DHT22;20410;55.578;12.968;2022-12-11T01:56:44;1.10;1.00
34135;DHT22;20410;55.578;12.968;2022-12-11T01:59:13;0.90;1.00
34135;DHT22;20410;55.578;12.968;2022-12-11T02:01:47;0.90;1.00
34135;DHT22;20410;55.578;12.968;2022-12-11T02:04:15;0.90;1.00
34135;DHT22;20410;55.578;12.968;2022-12-11T02:06:44;1.00;1.00
34135;DHT22;20410;55.578;12.968;2022-12-11T02:09:17;1.00;1.00
34135;DHT22;20410;55.578;12.968;2022-12-11T02:17:49;1.00;1.00
34135;DHT22;20410;55.578;12.968;2022-12-11T02:30:58;0.70;1.00
34135;DHT22;20410;55.578;12.968;2022-12-11T02:33:38;0.70;1.00
34135;DHT22;20410;55.578;12.968;2022-12-11T02:36:08;0.60;1.00
34135;DHT22;20410;55.578;12.968;2022-12-11T02:38:37;0.40;1.00
34135;DHT22;20410;55.578;12.968;2022-12-11T02:41:05;0.40;1.00
34135;DHT22;20410;55.578;12.968;2022-12-11T02:43:33;0.40;1.00
34135;DHT22;20410;55.578;12.968;2022-12-11T02:46:02;0.40;1.00
34135;DHT22;20410;55.578;12.968;2022-12-11T02:48:29;0.30;1.00
34135;DHT22;20410;55.578;12.968;2022-12-11T02:50:57;0.20;1.00
34135;DHT22;20410;55.578;12.968;2022-12-11T02:53:27;0.10;1.00
34135;DHT22;20410;55.578;12.968;2022-12-11T02:56:00;0.10;1.00
34135;DHT22;20410;55.578;12.968;2022-12-11T02:58:32;0.20;2.30
34135;DHT22;20410;55.578;12.968;2022-12-11T03:00:58;0.10;2.50
34135;DHT22;20410;55.578;12.968;2022-12-11T03:03:24;0.20;12.10
34135;DHT22;20410;55.578;12.968;2022-12-11T03:05:50;0.30;11.60
34135;DHT22;20410;55.578;12.968;2022-12-11T03:08:15;0.30;1.00
34135;DHT22;20410;55.578;12.968;2022-12-11T03:10:43;0.20;1.00
34135;DHT22;20410;55.578;12.968;2022-12-11T03:13:11;0.20;1.00
34135;DHT22;20410;55.578;12.968;2022-12-11T03:18:38;0.20;1.00
34135;DHT22;20410;55.578;12.968;2022-12-11T03:21:25;0.40;1.00
34135;DHT22;20410;55.578;12.968;2022-12-11T03:24:03;0.30;1.00
34135;DHT22;20410;55.578;12.968;2022-12-11T03:26:31;0.40;1.00
34135;DHT22;20410;55.578;12.968;2022-12-11T03:29:03;0.30;1.00
34135;DHT22;20410;55.578;12.968;2022-12-11T03:31:44;0.20;1.00
34135;DHT22;20410;55.578;12.968;2022-12-11T03:34:40;0.20;1.00
34135;DHT22;20410;55.578;12.968;2022-12-11T03:37:04;0.10;1.00
34135;DHT22;20410;55.578;12.968;2022-12-11T03:39:35;0.10;1.00
34135;DHT22;20410;55.578;12.968;2022-12-11T03:42:05;0.00;1.00
34135;DHT22;20410;55.578;12.968;2022-12-11T03:44:34;0.10;1.00
34135;DHT22;20410;55.578;12.968;2022-12-11T03:47:02;0.10;1.00
34135;DHT22;20410;55.578;12.968;2022-12-11T03:49:33;0.20;1.00
34135;DHT22;20410;55.578;12.968;2022-12-11T03:52:01;0.30;1.00
34135;DHT22;20410;55.578;12.968;2022-12-11T03:54:28;0.30;1.00
34135;DHT22;20410;55.578;12.968;2022-12-11T03:56:56;0.20;1.00
34135;DHT22;20410;55.578;12.968;2022-12-11T03:59:22;0.10;1.00
34135;DHT22;20410;55.578;12.968;2022-12-11T04:01:48;0.10;1.00
34135;DHT22;20410;55.578;12.968;2022-12-11T04:04:14;0.20;1.00
34135;DHT22;20410;55.578;12.968;2022-12-11T04:06:39;0.10;1.00
34135;DHT22;20410;55.578;12.968;2022-12-11T04:09:05;0.10;1.00
34135;DHT22;20410;55.578;12.968;2022-12-11T04:11:31;0.10;1.00
34135;DHT22;20410;55.578;12.968;2022-12-11T04:14:01;0.10;1.00
34135;DHT22;20410;55.578;12.968;2022-12-11T04:16:46;0.20;1.00
34135;DHT22;20410;55.578;12.968;2022-12-11T04:19:11;0.10;1.00
34135;DHT22;20410;55.578;12.968;2022-12-11T04:21:55;0.20;1.00
34135;DHT22;20410;55.578;12.968;2022-12-11T04:24:40;0.20;1.00
34135;DHT22;20410;55.578;12.968;2022-12-11T04:27:05;0.10;1.00
34135;DHT22;20410;55.578;12.968;2022-12-11T04:29:31;0.10;1.00
34135;DHT22;20410;55.578;12.968;2022-12-11T04:31:57;0.20;1.00
34135;DHT22;20410;55.578;12.968;2022-12-11T04:34:23;0.30;1.00
34135;DHT22;20410;55.578;12.968;2022-12-11T04:36:49;0.30;1.00
34135;DHT22;20410;55.578;12.968;2022-12-11T04:39:14;0.30;1.00
34135;DHT22;20410;55.578;12.968;2022-12-11T04:41:40;0.30;1.00
34135;DHT22;20410;55.578;12.968;2022-12-11T04:44:06;0.30;1.00
34135;DHT22;20410;55.578;12.968;2022-12-11T04:46:32;0.00;1.00
34135;DHT22;20410;55.578;12.968;2022-12-11T04:48:58;0.00;1.00
34135;DHT22;20410;55.578;12.968;2022-12-11T04:51:25;-0.10;1.00
34135;DHT22;20410;55.578;12.968;2022-12-11T04:53:51;-0.20;1.00
34135;DHT22;20410;55.578;12.968;2022-12-11T04:56:17;-0.10;1.00
34135;DHT22;20410;55.578;12.968;2022-12-11T04:58:44;-0.20;1.00
34135;DHT22;20410;55.578;12.968;2022-12-11T05:01:20;-0.30;1.00
34135;DHT22;20410;55.578;12.968;2022-12-11T05:03:46;-0.30;1.00
34135;DHT22;20410;55.578;12.968;2022-12-11T05:06:13;-0.50;1.00
34135;DHT22;20410;55.578;12.968;2022-12-11T05:08:39;-0.60;1.00
34135;DHT22;20410;55.578;12.968;2022-12-11T05:11:07;-0.60;1.00
34135;DHT22;20410;55.578;12.968;2022-12-11T05:13:34;-0.50;1.00
34135;DHT22;20410;55.578;12.968;2022-12-11T05:16:03;-0.50;1.00
34135;DHT22;20410;55.578;12.968;2022-12-11T05:18:29;-0.50;1.00
34135;DHT22;20410;55.578;12.968;2022-12-11T05:21:00;-0.50;1.00
34135;DHT22;20410;55.578;12.968;2022-12-11T05:23:26;-0.60;1.00
34135;DHT22;20410;55.578;12.968;2022-12-11T05:25:54;-0.60;1.00
34135;DHT22;20410;55.578;12.968;2022-12-11T05:28:20;-0.60;1.00
34135;DHT22;20410;55.578;12.968;2022-12-11T05:30:46;-0.60;1.00
34135;DHT22;20410;55.578;12.968;2022-12-11T05:33:12;-0.70;1.00
34135;DHT22;20410;55.578;12.968;2022-12-11T05:35:38;-0.70;1.00
34135;DHT22;20410;55.578;12.968;2022-12-11T05:38:03;-0.80;1.00
34135;DHT22;20410;55.578;12.968;2022-12-11T05:40:29;-0.70;1.00
34135;DHT22;20410;55.578;12.968;2022-12-11T05:42:54;-0.60;1.00
34135;DHT22;20410;55.578;12.968;2022-12-11T05:45:20;-0.70;1.00
34135;DHT22;20410;55.578;12.968;2022-12-11T05:47:45;-0.90;1.00
34135;DHT22;20410;55.578;12.968;2022-12-11T05:50:11;-0.80;1.00
34135;DHT22;20410;55.578;12.968;2022-12-11T05:52:37;-0.70;1.00
34135;DHT22;20410;55.578;12.968;2022-12-11T05:55:02;-0.60;1.00
34135;DHT22;20410;55.578;12.968;2022-12-11T05:57:28;-0.60;1.00
34135;DHT22;20410;55.578;12.968;2022-12-11T05:59:54;-0.60;1.00
34135;DHT22;20410;55.578;12.968;2022-12-11T06:02:19;-0.70;1.00
34135;DHT22;20410;55.578;12.968;2022-12-11T06:04:45;-0.80;1.00
34135;DHT22;20410;55.578;12.968;2022-12-11T06:07:11;-0.80;1.00
34135;DHT22;20410;55.578;12.968;2022-12-11T06:09:36;-0.70;1.00
34135;DHT22;20410;55.578;12.968;2022-12-11T06:12:02;-0.80;1.00
34135;DHT22;20410;55.578;12.968;2022-12-11T06:14:27;-0.70;1.00
34135;DHT22;20410;55.578;12.968;2022-12-11T06:16:53;-0.70;1.00
34135;DHT22;20410;55.578;12.968;2022-12-11T06:19:19;-0.80;1.00
34135;DHT22;20410;55.578;12.968;2022-12-11T06:21:44;-0.90;1.00
34135;DHT22;20410;55.578;12.968;2022-12-11T06:24:11;-0.90;1.00
34135;DHT22;20410;55.578;12.968;2022-12-11T06:26:37;-0.90;1.00
34135;DHT22;20410;55.578;12.968;2022-12-11T06:29:02;-1.10;1.00
34135;DHT22;20410;55.578;12.968;2022-12-11T06:31:28;-1.30;1.00
34135;DHT22;20410;55.578;12.968;2022-12-11T06:33:54;-1.40;1.00
34135;DHT22;20410;55.578;12.968;2022-12-11T06:36:21;-1.50;1.00
34135;DHT22;20410;55.578;12.968;2022-12-11T06:38:47;-1.70;1.00
34135;DHT22;20410;55.578;12.968;2022-12-11T06:41:13;-1.70;1.00
34135;DHT22;20410;55.578;12.968;2022-12-11T06:43:40;-1.60;1.00
34135;DHT22;20410;55.578;12.968;2022-12-11T06:46:08;-1.60;1.00
34135;DHT22;20410;55.578;12.968;2022-12-11T06:48:35;-1.50;1.00
34135;DHT22;20410;55.578;12.968;2022-12-11T06:51:05;-1.40;1.00
34135;DHT22;20410;55.578;12.968;2022-12-11T06:53:31;-1.40;1.00
34135;DHT22;20410;55.578;12.968;2022-12-11T06:56:04;-1.30;1.00
34135;DHT22;20410;55.578;12.968;2022-12-11T06:58:29;-1.40;1.00
34135;DHT22;20410;55.578;12.968;2022-12-11T07:00:55;-1.60;1.00
34135;DHT22;20410;55.578;12.968;2022-12-11T07:03:21;-1.60;1.00
34135;DHT22;20410;55.578;12.968;2022-12-11T07:05:46;-1.70;1.00
34135;DHT22;20410;55.578;12.968;2022-12-11T07:08:12;-1.90;1.00
34135;DHT22;20410;55.578;12.968;2022-12-11T07:10:37;-2.00;1.00
34135;DHT22;20410;55.578;12.968;2022-12-11T07:13:03;-2.00;1.00
34135;DHT22;20410;55.578;12.968;2022-12-11T07:15:29;-2.00;1.00
34135;DHT22;20410;55.578;12.968;2022-12-11T07:17:54;-2.00;1.00
34135;DHT22;20410;55.578;12.968;2022-12-11T07:20:20;-2.10;1.00
34135;DHT22;20410;55.578;12.968;2022-12-11T07:22:46;-2.20;1.00
34135;DHT22;20410;55.578;12.968;2022-12-11T07:25:11;-2.10;5.00
34135;DHT22;20410;55.578;12.968;2022-12-11T07:27:37;-2.10;3.10
34135;DHT22;20410;55.578;12.968;2022-12-11T07:30:03;-2.00;5.10
34135;DHT22;20410;55.578;12.968;2022-12-11T07:32:29;-2.00;1.00
34135;DHT22;20410;55.578;12.968;2022-12-11T07:34:54;-1.90;1.00
34135;DHT22;20410;55.578;12.968;2022-12-11T07:37:20;-2.00;1.00
34135;DHT22;20410;55.578;12.968;2022-12-11T07:39:45;-2.10;1.00
34135;DHT22;20410;55.578;12.968;2022-12-11T07:42:13;-2.10;1.00
34135;DHT22;20410;55.578;12.968;2022-12-11T07:44:38;-2.10;1.00
34135;DHT22;20410;55.578;12.968;2022-12-11T07:47:04;-2.10;1.00
34135;DHT22;20410;55.578;12.968;2022-12-11T07:49:30;-2.20;1.00
34135;DHT22;20410;55.578;12.968;2022-12-11T07:51:55;-2.20;1.00
34135;DHT22;20410;55.578;12.968;2022-12-11T07:54:21;-2.20;3.00
34135;DHT22;20410;55.578;12.968;2022-12-11T07:56:47;-2.20;3.90
34135;DHT22;20410;55.578;12.968;2022-12-11T07:59:13;-2.20;1.00
34135;DHT22;20410;55.578;12.968;2022-12-11T08:01:39;-2.20;1.00
34135;DHT22;20410;55.578;12.968;2022-12-11T08:04:09;-2.20;1.00
34135;DHT22;20410;55.578;12.968;2022-12-11T08:06:37;-2.10;1.00
34135;DHT22;20410;55.578;12.968;2022-12-11T08:09:06;-2.00;1.00
34135;DHT22;20410;55.578;12.968;2022-12-11T08:11:33;-1.90;1.00
34135;DHT22;20410;55.578;12.968;2022-12-11T08:13:59;-1.90;1.00
34135;DHT22;20410;55.578;12.968;2022-12-11T08:16:25;-2.00;1.00
34135;DHT22;20410;55.578;12.968;2022-12-11T08:18:51;-2.00;1.00
34135;DHT22;20410;55.578;12.968;2022-12-11T08:21:22;-2.10;1.00
34135;DHT22;20410;55.578;12.968;2022-12-11T08:23:49;-2.10;1.00
34135;DHT22;20410;55.578;12.968;2022-12-11T08:26:17;-2.10;1.00
34135;DHT22;20410;55.578;12.968;2022-12-11T08:28:43;-2.10;1.00
34135;DHT22;20410;55.578;12.968;2022-12-11T08:31:11;-2.20;1.00
34135;DHT22;20410;55.578;12.968;2022-12-11T08:33:38;-2.20;1.00
34135;DHT22;20410;55.578;12.968;2022-12-11T08:36:09;-2.00;1.00
34135;DHT22;20410;55.578;12.968;2022-12-11T08:38:36;-2.00;1.00
34135;DHT22;20410;55.578;12.968;2022-12-11T08:41:16;-2.00;1.00
34135;DHT22;20410;55.578;12.968;2022-12-11T08:43:42;-1.90;1.00
34135;DHT22;20410;55.578;12.968;2022-12-11T08:46:09;-1.90;1.00
34135;DHT22;20410;55.578;12.968;2022-12-11T08:48:36;-1.80;1.00
34135;DHT22;20410;55.578;12.968;2022-12-11T08:51:04;-1.80;1.00
34135;DHT22;20410;55.578;12.968;2022-12-11T08:53:32;-1.90;1.00
34135;DHT22;20410;55.578;12.968;2022-12-11T08:56:19;-2.00;1.00
34135;DHT22;20410;55.578;12.968;2022-12-11T08:58:46;-2.20;1.00
34135;DHT22;20410;55.578;12.968;2022-12-11T09:01:20;-2.30;1.00
34135;DHT22;20410;55.578;12.968;2022-12-11T09:03:47;-2.30;1.00
34135;DHT22;20410;55.578;12.968;2022-12-11T09:06:16;-2.40;1.00
34135;DHT22;20410;55.578;12.968;2022-12-11T09:08:43;-2.40;1.00
34135;DHT22;20410;55.578;12.968;2022-12-11T09:11:12;-2.40;1.00
34135;DHT22;20410;55.578;12.968;2022-12-11T09:13:39;-2.40;1.00
34135;DHT22;20410;55.578;12.968;2022-12-11T09:16:11;-2.50;1.00
34135;DHT22;20410;55.578;12.968;2022-12-11T09:18:37;-2.60;1.00
34135;DHT22;20410;55.578;12.968;2022-12-11T09:21:06;-2.60;1.00
34135;DHT22;20410;55.578;12.968;2022-12-11T09:23:32;-2.60;1.00
34135;DHT22;20410;55.578;12.968;2022-12-11T09:25:58;-2.70;1.00
34135;DHT22;20410;55.578;12.968;2022-12-11T09:28:24;-2.60;1.00
34135;DHT22;20410;55.578;12.968;2022-12-11T09:30:50;-2.60;1.00
34135;DHT22;20410;55.578;12.968;2022-12-11T09:33:16;-2.60;1.00
34135;DHT22;20410;55.578;12.968;2022-12-11T09:35:41;-2.60;1.00
34135;DHT22;20410;55.578;12.968;2022-12-11T09:38:07;-2.60;1.00
34135;DHT22;20410;55.578;12.968;2022-12-11T09:40:41;-2.60;1.00
34135;DHT22;20410;55.578;12.968;2022-12-11T09:43:21;-2.60;1.00
34135;DHT22;20410;55.578;12.968;2022-12-11T09:45:54;-2.60;1.00
34135;DHT22;20410;55.578;12.968;2022-12-11T09:48:23;-2.60;1.00
34135;DHT22;20410;55.578;12.968;2022-12-11T09:50:52;-2.50;1.00
34135;DHT22;20410;55.578;12.968;2022-12-11T09:53:28;-2.40;1.00
34135;DHT22;20410;55.578;12.968;2022-12-11T09:56:05;-2.40;1.00
34135;DHT22;20410;55.578;12.968;2022-12-11T10:04:14;-2.80;1.00
34135;DHT22;20410;55.578;12.968;2022-12-11T10:10:44;-2.90;1.00
34135;DHT22;20410;55.578;12.968;2022-12-11T10:13:12;-3.10;1.00
34135;DHT22;20410;55.578;12.968;2022-12-11T10:16:00;-2.90;1.00
34135;DHT22;20410;55.578;12.968;2022-12-11T10:18:29;-3.00;1.00
34135;DHT22;20410;55.578;12.968;2022-12-11T10:20:56;-3.00;1.00
34135;DHT22;20410;55.578;12.968;2022-12-11T10:23:29;-3.10;1.00
34135;DHT22;20410;55.578;12.968;2022-12-11T10:26:19;-3.00;1.00
34135;DHT22;20410;55.578;12.968;2022-12-11T10:28:46;-2.90;1.00
34135;DHT22;20410;55.578;12.968;2022-12-11T10:31:18;-3.00;1.00
34135;DHT22;20410;55.578;12.968;2022-12-11T10:34:03;-3.20;1.00
34135;DHT22;20410;55.578;12.968;2022-12-11T10:36:34;-3.30;1.00
34135;DHT22;20410;55.578;12.968;2022-12-11T10:39:00;-3.40;1.00
34135;DHT22;20410;55.578;12.968;2022-12-11T10:41:41;-3.60;1.00
34135;DHT22;20410;55.578;12.968;2022-12-11T10:44:17;-3.60;1.00
34135;DHT22;20410;55.578;12.968;2022-12-11T10:46:44;-3.60;1.00
34135;DHT22;20410;55.578;12.968;2022-12-11T10:49:23;-3.50;1.00
34135;DHT22;20410;55.578;12.968;2022-12-11T10:51:51;-3.70;1.00
34135;DHT22;20410;55.578;12.968;2022-12-11T10:54:32;-3.60;1.00
34135;DHT22;20410;55.578;12.968;2022-12-11T10:57:00;-3.90;1.00
34135;DHT22;20410;55.578;12.968;2022-12-11T11:04:50;-3.70;1.00
34135;DHT22;20410;55.578;12.968;2022-12-11T11:07:28;-3.70;1.00
34135;DHT22;20410;55.578;12.968;2022-12-11T11:10:12;-3.80;1.00
34135;DHT22;20410;55.578;12.968;2022-12-11T11:12:43;-3.80;1.00
34135;DHT22;20410;55.578;12.968;2022-12-11T11:15:21;-3.70;1.00
34135;DHT22;20410;55.578;12.968;2022-12-11T11:17:51;-3.70;1.00
34135;DHT22;20410;55.578;12.968;2022-12-11T11:20:19;-3.70;1.00
34135;DHT22;20410;55.578;12.968;2022-12-11T11:22:49;-3.90;1.00
34135;DHT22;20410;55.578;12.968;2022-12-11T11:25:48;-3.80;1.00
34135;DHT22;20410;55.578;12.968;2022-12-11T11:28:19;-3.90;1.00
34135;DHT22;20410;55.578;12.968;2022-12-11T11:30:59;-3.90;1.00
34135;DHT22;20410;55.578;12.968;2022-12-11T11:33:26;-3.90;1.00
34135;DHT22;20410;55.578;12.968;2022-12-11T11:43:53;-4.00;1.00
34135;DHT22;20410;55.578;12.968;2022-12-11T11:46:29;-3.90;1.00
34135;DHT22;20410;55.578;12.968;2022-12-11T11:51:59;-3.60;1.00
34135;DHT22;20410;55.578;12.968;2022-12-11T11:54:34;-3.50;1.00
34135;DHT22;20410;55.578;12.968;2022-12-11T11:57:26;-3.30;1.00
34135;DHT22;20410;55.578;12.968;2022-12-11T11:59:53;-3.30;1.00
34135;DHT22;20410;55.578;12.968;2022-12-11T12:02:21;-3.40;1.00
34135;DHT22;20410;55.578;12.968;2022-12-11T12:04:47;-3.30;1.00
34135;DHT22;20410;55.578;12.968;2022-12-11T12:10:13;-3.40;1.00
34135;DHT22;20410;55.578;12.968;2022-12-11T12:15:50;-3.30;1.00
34135;DHT22;20410;55.578;12.968;2022-12-11T12:26:33;-3.30;1.00
34135;DHT22;20410;55.578;12.968;2022-12-11T12:29:25;-3.30;1.00
34135;DHT22;20410;55.578;12.968;2022-12-11T12:40:42;-3.20;1.00
34135;DHT22;20410;55.578;12.968;2022-12-11T12:48:51;-2.90;1.00
34135;DHT22;20410;55.578;12.968;2022-12-11T12:51:19;-2.90;1.00
34135;DHT22;20410;55.578;12.968;2022-12-11T12:53:54;-2.80;1.00
34135;DHT22;20410;55.578;12.968;2022-12-11T12:56:21;-2.70;1.00
34135;DHT22;20410;55.578;12.968;2022-12-11T12:58:47;-2.70;1.00
34135;DHT22;20410;55.578;12.968;2022-12-11T13:01:17;-2.70;1.00
34135;DHT22;20410;55.578;12.968;2022-12-11T13:04:04;-2.70;1.00
34135;DHT22;20410;55.578;12.968;2022-12-11T13:11:39;-3.00;1.00
34135;DHT22;20410;55.578;12.968;2022-12-11T13:14:20;-3.00;1.00
34135;DHT22;20410;55.578;12.968;2022-12-11T13:16:49;-2.90;1.00
34135;DHT22;20410;55.578;12.968;2022-12-11T13:22:21;-3.00;1.00
34135;DHT22;20410;55.578;12.968;2022-12-11T13:27:45;-3.10;1.00
34135;DHT22;20410;55.578;12.968;2022-12-11T13:35:19;-3.60;1.00
34135;DHT22;20410;55.578;12.968;2022-12-11T13:37:48;-3.50;1.00
34135;DHT22;20410;55.578;12.968;2022-12-11T13:40:18;-3.50;1.00
34135;DHT22;20410;55.578;12.968;2022-12-11T13:43:21;-3.50;1.00
34135;DHT22;20410;55.578;12.968;2022-12-11T13:45:56;-3.50;1.00
34135;DHT22;20410;55.578;12.968;2022-12-11T13:50:52;-3.50;1.00
34135;DHT22;20410;55.578;12.968;2022-12-11T13:53:19;-3.60;1.00
34135;DHT22;20410;55.578;12.968;2022-12-11T13:55:46;-3.80;1.00
34135;DHT22;20410;55.578;12.968;2022-12-11T13:58:21;-3.70;1.00
34135;DHT22;20410;55.578;12.968;2022-12-11T14:01:13;-3.70;1.00
34135;DHT22;20410;55.578;12.968;2022-12-11T14:03:46;-3.70;1.00
34135;DHT22;20410;55.578;12.968;2022-12-11T14:06:13;-3.70;1.00
34135;DHT22;20410;55.578;12.968;2022-12-11T14:08:42;-3.70;1.00
34135;DHT22;20410;55.578;12.968;2022-12-11T14:11:22;-3.70;1.00
34135;DHT22;20410;55.578;12.968;2022-12-11T14:13:49;-3.60;1.00
34135;DHT22;20410;55.578;12.968;2022-12-11T14:16:22;-3.60;1.00
34135;DHT22;20410;55.578;12.968;2022-12-11T14:18:49;-3.60;1.00
34135;DHT22;20410;55.578;12.968;2022-12-11T14:21:22;-3.60;1.00
34135;DHT22;20410;55.578;12.968;2022-12-11T14:24:11;-3.50;1.00
34135;DHT22;20410;55.578;12.968;2022-12-11T14:26:36;-3.40;1.00
34135;DHT22;20410;55.578;12.968;2022-12-11T14:29:03;-3.50;1.00
34135;DHT22;20410;55.578;12.968;2022-12-11T14:31:36;-3.70;1.00
34135;DHT22;20410;55.578;12.968;2022-12-11T14:34:06;-3.80;1.00
34135;DHT22;20410;55.578;12.968;2022-12-11T14:36:35;-3.80;1.00
34135;DHT22;20410;55.578;12.968;2022-12-11T14:39:10;-3.90;1.00
34135;DHT22;20410;55.578;12.968;2022-12-11T14:44:20;-3.70;1.00
34135;DHT22;20410;55.578;12.968;2022-12-11T14:46:55;-3.80;1.00
34135;DHT22;20410;55.578;12.968;2022-12-11T14:49:27;-3.70;1.00
34135;DHT22;20410;55.578;12.968;2022-12-11T14:51:54;-3.80;1.00
34135;DHT22;20410;55.578;12.968;2022-12-11T14:54:35;-3.90;1.00
34135;DHT22;20410;55.578;12.968;2022-12-11T14:57:03;-3.80;1.00
34135;DHT22;20410;55.578;12.968;2022-12-11T14:59:37;-3.90;1.00
34135;DHT22;20410;55.578;12.968;2022-12-11T15:02:34;-3.80;1.00
34135;DHT22;20410;55.578;12.968;2022-12-11T15:07:40;-3.80;1.00
34135;DHT22;20410;55.578;12.968;2022-12-11T15:10:19;-3.90;1.00
34135;DHT22;20410;55.578;12.968;2022-12-11T15:12:45;-3.80;1.00
34135;DHT22;20410;55.578;12.968;2022-12-11T15:15:14;-3.90;1.00
34135;DHT22;20410;55.578;12.968;2022-12-11T15:17:41;-3.80;1.00
34135;DHT22;20410;55.578;12.968;2022-12-11T15:20:19;-3.70;1.00
34135;DHT22;20410;55.578;12.968;2022-12-11T15:22:46;-3.70;1.00
34135;DHT22;20410;55.578;12.968;2022-12-11T15:25:26;-3.80;1.00
34135;DHT22;20410;55.578;12.968;2022-12-11T15:27:55;-3.90;1.00
34135;DHT22;20410;55.578;12.968;2022-12-11T15:35:36;-4.20;1.00
34135;DHT22;20410;55.578;12.968;2022-12-11T15:38:02;-4.10;1.00
34135;DHT22;20410;55.578;12.968;2022-12-11T15:40:28;-4.20;1.00
34135;DHT22;20410;55.578;12.968;2022-12-11T15:42:54;-4.20;1.00
34135;DHT22;20410;55.578;12.968;2022-12-11T15:45:23;-4.20;1.00
34135;DHT22;20410;55.578;12.968;2022-12-11T15:47:50;-4.30;1.00
34135;DHT22;20410;55.578;12.968;2022-12-11T15:50:25;-4.30;1.00
34135;DHT22;20410;55.578;12.968;2022-12-11T15:52:53;-4.40;1.00
34135;DHT22;20410;55.578;12.968;2022-12-11T15:55:19;-4.40;1.00
34135;DHT22;20410;55.578;12.968;2022-12-11T15:57:49;-4.50;1.00
34135;DHT22;20410;55.578;12.968;2022-12-11T16:00:18;-4.50;1.00
34135;DHT22;20410;55.578;12.968;2022-12-11T16:02:44;-4.60;1.00
34135;DHT22;20410;55.578;12.968;2022-12-11T16:05:10;-4.70;1.00
34135;DHT22;20410;55.578;12.968;2022-12-11T16:07:36;-4.60;1.00
34135;DHT22;20410;55.578;12.968;2022-12-11T16:10:03;-4.60;1.00
34135;DHT22;20410;55.578;12.968;2022-12-11T16:12:28;-4.50;1.00
34135;DHT22;20410;55.578;12.968;2022-12-11T16:14:54;-4.50;1.00
34135;DHT22;20410;55.578;12.968;2022-12-11T16:17:20;-4.50;1.00
34135;DHT22;20410;55.578;12.968;2022-12-11T16:19:45;-4.50;1.00
34135;DHT22;20410;55.578;12.968;2022-12-11T16:22:12;-4.40;1.00
34135;DHT22;20410;55.578;12.968;2022-12-11T16:24:39;-4.40;1.00
34135;DHT22;20410;55.578;12.968;2022-12-11T16:27:06;-4.40;1.00
34135;DHT22;20410;55.578;12.968;2022-12-11T16:29:36;-4.40;1.00
34135;DHT22;20410;55.578;12.968;2022-12-11T16:32:02;-4.40;1.00
34135;DHT22;20410;55.578;12.968;2022-12-11T16:34:28;-4.50;1.00
34135;DHT22;20410;55.578;12.968;2022-12-11T16:36:56;-4.50;1.00
34135;DHT22;20410;55.578;12.968;2022-12-11T16:39:23;-4.50;1.00
34135;DHT22;20410;55.578;12.968;2022-12-11T16:41:48;-4.60;1.00
34135;DHT22;20410;55.578;12.968;2022-12-11T16:44:19;-4.50;1.00
34135;DHT22;20410;55.578;12.968;2022-12-11T16:46:45;-4.40;1.00
34135;DHT22;20410;55.578;12.968;2022-12-11T16:49:11;-4.30;1.00
34135;DHT22;20410;55.578;12.968;2022-12-11T16:51:37;-4.30;1.00
34135;DHT22;20410;55.578;12.968;2022-12-11T16:54:03;-4.40;1.00
34135;DHT22;20410;55.578;12.968;2022-12-11T16:56:28;-4.50;1.00
34135;DHT22;20410;55.578;12.968;2022-12-11T16:58:54;-4.30;1.00
34135;DHT22;20410;55.578;12.968;2022-12-11T17:01:20;-4.20;1.00
34135;DHT22;20410;55.578;12.968;2022-12-11T17:03:46;-4.20;1.00
34135;DHT22;20410;55.578;12.968;2022-12-11T17:06:13;-4.30;1.00
34135;DHT22;20410;55.578;12.968;2022-12-11T17:08:40;-4.30;1.00
34135;DHT22;20410;55.578;12.968;2022-12-11T17:11:08;-4.30;1.00
34135;DHT22;20410;55.578;12.968;2022-12-11T17:13:34;-4.20;1.00
34135;DHT22;20410;55.578;12.968;2022-12-11T17:16:12;-4.10;1.00
34135;DHT22;20410;55.578;12.968;2022-12-11T17:18:38;-4.00;1.00
34135;DHT22;20410;55.578;12.968;2022-12-11T17:21:15;-4.00;1.00
34135;DHT22;20410;55.578;12.968;2022-12-11T17:23:41;-4.00;1.00
34135;DHT22;20410;55.578;12.968;2022-12-11T17:26:08;-4.30;1.00
34135;DHT22;20410;55.578;12.968;2022-12-11T17:28:34;-4.40;1.00
34135;DHT22;20410;55.578;12.968;2022-12-11T17:31:09;-4.20;1.00
34135;DHT22;20410;55.578;12.968;2022-12-11T17:33:36;-4.20;1.00
34135;DHT22;20410;55.578;12.968;2022-12-11T17:36:03;-4.20;1.00